Time;durP1;ratioP1;P1;durP2;ratioP2;P2;SDS_P1;SDS_P2;PMS_P1;PMS_P2;Temp;Humidity;BMP_temperature;BMP_pressure;BME280_temperature;BME280_humidity;BME280_pressure;Samples;Min_cycle;Max_cycle;Signal;HPM_P1;HPM_P2
2022/07/05 00:00:00;;;;;;;2.28;2.03;;;;;;;;;;10280232;28;20083;-64
2022/07/05 00:04:58;;;;;;;3.78;2.45;;;;;;;;;;10276398;28;20083;-65
2022/07/05 00:09:57;;;;;;;5.15;1.98;;;;;;;;;;10276455;28;20087;-65
2022/07/05 00:14:55;;;;;;;13.93;2.95;;;;;;;;;;10276292;28;20418;-65
2022/07/05 00:19:55;;;;;;;4.25;2.50;;;;;;;;;;10279664;28;20528;-65
2022/07/05 00:24:53;;;;;;;2.85;2.00;;;;;;;;;;10277809;28;20376;-64
2022/07/05 00:29:52;;;;;;;8.02;2.00;;;;;;;;;;10277306;28;20080;-65
2022/07/05 00:34:50;;;;;;;2.35;1.63;;;;;;;;;;10277951;28;20072;-64
2022/07/05 00:39:50;;;;;;;5.65;2.05;;;;;;;;;;10277056;28;20422;-64
2022/07/05 00:44:48;;;;;;;6.85;2.40;;;;;;;;;;10275592;28;20041;-65
2022/07/05 00:49:46;;;;;;;4.50;2.33;;;;;;;;;;10273811;28;20053;-65
2022/07/05 00:54:45;;;;;;;3.30;2.10;;;;;;;;;;10278763;28;20065;-64
2022/07/05 00:59:45;;;;;;;2.88;2.30;;;;;;;;;;10279488;28;20118;-64
2022/07/05 01:04:43;;;;;;;6.75;1.90;;;;;;;;;;10278926;28;20072;-65
2022/07/05 01:09:42;;;;;;;2.72;2.08;;;;;;;;;;10281101;28;20521;-65
2022/07/05 01:14:42;;;;;;;4.90;1.73;;;;;;;;;;10281090;28;20465;-65
2022/07/05 01:19:42;;;;;;;2.08;1.77;;;;;;;;;;10281008;28;20418;-64
2022/07/05 01:24:42;;;;;;;3.15;2.30;;;;;;;;;;10286243;28;20053;-65
2022/07/05 01:29:42;;;;;;;4.05;2.45;;;;;;;;;;10283234;28;20439;-64
2022/07/05 01:34:40;;;;;;;3.53;2.45;;;;;;;;;;10282987;28;20069;-65
2022/07/05 01:39:40;;;;;;;4.45;1.83;;;;;;;;;;10285396;28;20077;-64
2022/07/05 01:44:40;;;;;;;5.22;2.47;;;;;;;;;;10282801;28;20049;-65
2022/07/05 01:49:41;;;;;;;3.22;2.28;;;;;;;;;;10283761;28;20053;-68
2022/07/05 01:54:40;;;;;;;4.28;1.88;;;;;;;;;;10283667;28;20095;-68
2022/07/05 01:59:41;;;;;;;3.10;1.63;;;;;;;;;;10282240;28;20080;-68
2022/07/05 02:04:39;;;;;;;3.47;1.73;;;;;;;;;;10284855;28;20088;-68
2022/07/05 02:09:41;;;;;;;2.53;2.28;;;;;;;;;;10280384;28;20067;-68
2022/07/05 02:14:41;;;;;;;3.17;2.50;;;;;;;;;;10279651;28;20092;-68
2022/07/05 02:19:45;;;;;;;1.90;1.80;;;;;;;;;;10279835;28;20080;-68
2022/07/05 02:25:00;;;;;;;3.40;1.85;;;;;;;;;;10281663;28;20052;-68
2022/07/05 02:30:00;;;;;;;2.15;1.90;;;;;;;;;;10294713;28;20065;-68
2022/07/05 02:35:07;;;;;;;5.85;1.70;;;;;;;;;;10278023;28;20060;-68
2022/07/05 02:40:07;;;;;;;3.80;2.05;;;;;;;;;;10277628;28;20052;-68
2022/07/05 02:45:10;;;;;;;2.47;2.00;;;;;;;;;;10277972;28;20072;-68
2022/07/05 02:50:11;;;;;;;4.30;2.30;;;;;;;;;;10289446;28;20421;-68
2022/07/05 02:55:14;;;;;;;3.10;2.15;;;;;;;;;;10288032;28;20052;-68
2022/07/05 03:00:15;;;;;;;3.83;1.88;;;;;;;;;;10279409;28;20545;-68
2022/07/05 03:05:17;;;;;;;4.88;2.60;;;;;;;;;;10278412;28;20053;-69
2022/07/05 03:10:26;;;;;;;4.82;1.85;;;;;;;;;;10288313;28;20490;-67
2022/07/05 03:15:29;;;;;;;2.93;2.13;;;;;;;;;;10276757;28;20552;-67
2022/07/05 03:20:30;;;;;;;2.63;2.40;;;;;;;;;;10276228;28;20044;-68
2022/07/05 03:25:29;;;;;;;2.70;1.95;;;;;;;;;;10278057;28;20315;-68
2022/07/05 03:30:31;;;;;;;5.55;2.55;;;;;;;;;;10285468;28;20060;-68
2022/07/05 03:35:29;;;;;;;5.32;2.67;;;;;;;;;;10276874;28;20060;-68
2022/07/05 03:40:28;;;;;;;8.68;2.80;;;;;;;;;;10286210;28;20105;-68
2022/07/05 03:45:26;;;;;;;3.03;2.47;;;;;;;;;;10276801;28;20490;-68
2022/07/05 03:50:27;;;;;;;11.23;2.60;;;;;;;;;;10277503;28;20440;-68
2022/07/05 03:55:25;;;;;;;45.45;4.15;;;;;;;;;;10284813;28;20080;-69
2022/07/05 04:00:25;;;;;;;4.72;2.40;;;;;;;;;;10284942;28;20044;-68
2022/07/05 04:05:32;;;;;;;11.80;9.68;;;;;;;;;;10287604;28;20063;-67
2022/07/05 04:10:31;;;;;;;5.28;2.55;;;;;;;;;;10279841;28;20069;-67
2022/07/05 04:15:30;;;;;;;3.60;2.13;;;;;;;;;;10284774;28;20080;-68
2022/07/05 04:20:31;;;;;;;6.47;3.15;;;;;;;;;;10284929;28;20064;-69
2022/07/05 04:25:31;;;;;;;3.63;2.47;;;;;;;;;;10285817;28;20068;-69
2022/07/05 04:30:52;;;;;;;6.50;2.25;;;;;;;;;;10276476;28;20072;-68
2022/07/05 04:35:53;;;;;;;4.68;2.60;;;;;;;;;;10275278;28;20056;-68
2022/07/05 04:40:52;;;;;;;4.55;2.40;;;;;;;;;;10283522;28;20041;-68
2022/07/05 04:45:51;;;;;;;5.78;2.40;;;;;;;;;;10297348;28;20087;-68
2022/07/05 04:50:56;;;;;;;5.53;2.75;;;;;;;;;;10283917;28;20187;-68
2022/07/05 04:55:56;;;;;;;5.35;2.47;;;;;;;;;;10292776;28;20087;-69
2022/07/05 05:00:54;;;;;;;3.33;2.40;;;;;;;;;;10278586;28;20076;-68
2022/07/05 05:05:52;;;;;;;4.38;2.30;;;;;;;;;;10281619;28;20061;-68
2022/07/05 05:10:52;;;;;;;7.63;2.28;;;;;;;;;;10282886;28;20056;-69
2022/07/05 05:15:50;;;;;;;2.90;2.20;;;;;;;;;;10281079;28;20076;-69
2022/07/05 05:20:49;;;;;;;5.03;2.38;;;;;;;;;;10278537;28;20069;-69
2022/07/05 05:25:47;;;;;;;3.20;2.83;;;;;;;;;;10282440;28;20087;-69
2022/07/05 05:30:47;;;;;;;2.55;2.00;;;;;;;;;;10282432;28;20076;-69
2022/07/05 05:35:45;;;;;;;2.35;2.13;;;;;;;;;;10279111;28;20081;-68
2022/07/05 05:40:44;;;;;;;5.95;2.20;;;;;;;;;;10278188;28;20072;-68
2022/07/05 05:45:42;;;;;;;5.03;2.20;;;;;;;;;;10277506;28;20064;-68
2022/07/05 05:50:42;;;;;;;3.63;2.55;;;;;;;;;;10279530;28;20080;-68
2022/07/05 05:55:40;;;;;;;2.83;2.40;;;;;;;;;;10284472;28;20084;-68
2022/07/05 06:00:39;;;;;;;2.90;2.60;;;;;;;;;;10283432;28;20060;-68
2022/07/05 06:05:37;;;;;;;6.75;2.97;;;;;;;;;;10282212;28;20450;-68
2022/07/05 06:10:38;;;;;;;5.50;2.17;;;;;;;;;;10282533;28;20065;-68
2022/07/05 06:15:36;;;;;;;21.17;3.60;;;;;;;;;;10280814;28;20470;-68
2022/07/05 06:20:36;;;;;;;3.50;2.58;;;;;;;;;;10280718;28;20521;-68
2022/07/05 06:25:34;;;;;;;3.63;2.38;;;;;;;;;;10280743;28;20297;-68
2022/07/05 06:30:35;;;;;;;6.45;3.97;;;;;;;;;;10283947;28;20068;-68
2022/07/05 06:35:33;;;;;;;4.20;2.70;;;;;;;;;;10279843;28;20107;-69
2022/07/05 06:40:32;;;;;;;5.65;2.60;;;;;;;;;;10283308;28;20066;-68
2022/07/05 06:45:30;;;;;;;3.33;3.03;;;;;;;;;;10279660;28;20525;-68
2022/07/05 06:50:30;;;;;;;5.38;2.20;;;;;;;;;;10278608;28;20490;-69
2022/07/05 06:55:29;;;;;;;15.27;3.72;;;;;;;;;;10279047;28;20084;-69
2022/07/05 07:00:27;;;;;;;20.67;4.45;;;;;;;;;;10279876;28;20044;-69
2022/07/05 07:05:47;;;;;;;33.55;4.95;;;;;;;;;;10286278;28;20080;-69
2022/07/05 07:11:02;;;;;;;27.05;5.72;;;;;;;;;;10282225;28;20048;-67
2022/07/05 07:16:00;;;;;;;21.58;4.88;;;;;;;;;;10278906;28;20084;-68
2022/07/05 07:21:00;;;;;;;18.10;6.55;;;;;;;;;;10283604;28;20048;-69
2022/07/05 07:26:06;;;;;;;21.27;4.53;;;;;;;;;;10316990;28;20398;-69
2022/07/05 07:31:04;;;;;;;10.63;4.60;;;;;;;;;;10280573;28;20068;-66
2022/07/05 07:36:03;;;;;;;9.90;4.68;;;;;;;;;;10280875;28;20080;-66
2022/07/05 07:41:02;;;;;;;8.98;4.82;;;;;;;;;;10279895;28;20084;-67
2022/07/05 07:46:02;;;;;;;14.80;5.32;;;;;;;;;;10282184;28;20080;-67
2022/07/05 07:51:03;;;;;;;12.43;4.72;;;;;;;;;;10282257;28;20045;-70
2022/07/05 07:56:02;;;;;;;8.35;4.35;;;;;;;;;;10263018;28;20060;-67
2022/07/05 08:01:00;;;;;;;9.68;5.40;;;;;;;;;;10268239;28;20045;-70
2022/07/05 08:05:59;;;;;;;11.57;4.07;;;;;;;;;;10267794;28;20073;-69
2022/07/05 08:10:59;;;;;;;12.23;4.30;;;;;;;;;;10276818;28;20049;-71
2022/07/05 08:15:57;;;;;;;14.60;4.43;;;;;;;;;;10280609;28;20045;-70
2022/07/05 08:26:13;;;;;;;9.40;4.53;;;;;;;;;;10275307;28;20084;-69
2022/07/05 08:31:11;;;;;;;13.80;5.53;;;;;;;;;;10275518;28;20060;-67
2022/07/05 08:36:10;;;;;;;10.60;5.63;;;;;;;;;;10257651;28;20041;-69
2022/07/05 08:41:10;;;;;;;17.35;4.95;;;;;;;;;;10252523;28;20073;-69
2022/07/05 08:46:10;;;;;;;4.20;2.85;;;;;;;;;;10252125;28;20088;-67
2022/07/05 08:51:11;;;;;;;6.60;3.17;;;;;;;;;;10250036;28;20084;-68
2022/07/05 08:56:10;;;;;;;7.45;3.47;;;;;;;;;;10247472;28;20073;-69
2022/07/05 09:01:11;;;;;;;15.00;4.78;;;;;;;;;;10251123;28;20140;-69
2022/07/05 09:06:10;;;;;;;4.80;2.60;;;;;;;;;;10250761;28;20041;-69
2022/07/05 09:11:09;;;;;;;7.22;3.42;;;;;;;;;;10250790;28;20056;-69
2022/07/05 09:16:08;;;;;;;10.98;3.65;;;;;;;;;;10246877;28;20064;-69
2022/07/05 09:21:13;;;;;;;7.75;4.60;;;;;;;;;;10250766;28;20049;-68
2022/07/05 09:26:12;;;;;;;12.48;3.75;;;;;;;;;;10246285;28;20542;-69
2022/07/05 09:31:26;;;;;;;8.55;3.17;;;;;;;;;;10246888;28;20072;-67
2022/07/05 09:36:25;;;;;;;8.45;2.70;;;;;;;;;;10245835;28;20091;-69
2022/07/05 09:41:24;;;;;;;10.35;3.22;;;;;;;;;;10249741;28;20127;-69
2022/07/05 09:46:30;;;;;;;9.00;3.13;;;;;;;;;;10248886;28;20149;-69
2022/07/05 09:51:29;;;;;;;3.63;3.00;;;;;;;;;;10244780;28;20092;-69
2022/07/05 09:56:48;;;;;;;5.30;3.85;;;;;;;;;;10248170;28;20104;-70
2022/07/05 10:01:47;;;;;;;7.93;3.80;;;;;;;;;;10245028;28;20038;-69
2022/07/05 10:06:47;;;;;;;6.53;3.30;;;;;;;;;;10230195;28;20481;-68
2022/07/05 10:11:46;;;;;;;9.75;5.35;;;;;;;;;;10236218;28;20045;-69
2022/07/05 10:16:46;;;;;;;7.10;3.30;;;;;;;;;;10237216;28;20111;-70
2022/07/05 10:21:47;;;;;;;13.48;3.80;;;;;;;;;;10242905;28;20073;-70
2022/07/05 10:27:06;;;;;;;7.80;3.63;;;;;;;;;;10235505;28;20073;-69
2022/07/05 10:32:07;;;;;;;6.28;3.55;;;;;;;;;;10236009;28;20068;-69
2022/07/05 10:37:07;;;;;;;8.38;3.10;;;;;;;;;;10237600;28;20096;-68
2022/07/05 10:42:06;;;;;;;9.40;3.47;;;;;;;;;;10240995;28;20076;-69
2022/07/05 10:47:09;;;;;;;8.35;3.47;;;;;;;;;;10228623;28;20087;-69
2022/07/05 10:52:23;;;;;;;9.23;4.72;;;;;;;;;;10234956;28;20041;-69
2022/07/05 10:57:24;;;;;;;6.22;3.17;;;;;;;;;;10239656;28;20069;-70
2022/07/05 11:02:24;;;;;;;11.63;3.17;;;;;;;;;;10247144;28;20076;-69
2022/07/05 11:07:37;;;;;;;4.88;3.47;;;;;;;;;;10247231;28;20087;-70
2022/07/05 11:12:35;;;;;;;;;;;;;;;;;;10244794;28;20084;-70
2022/07/05 11:17:36;;;;;;;10.73;3.25;;;;;;;;;;10248773;28;19921;-69
2022/07/05 11:23:02;;;;;;;7.30;3.28;;;;;;;;;;10242228;28;20076;-68
2022/07/05 11:28:02;;;;;;;10.70;5.32;;;;;;;;;;10245252;28;20486;-71
2022/07/05 11:33:24;;;;;;;7.53;3.47;;;;;;;;;;10247626;28;20076;-71
2022/07/05 11:38:22;;;;;;;10.65;3.05;;;;;;;;;;10243691;28;20109;-70
2022/07/05 11:43:31;;;;;;;6.10;3.45;;;;;;;;;;10247851;28;20095;-71
2022/07/05 11:48:30;;;;;;;6.05;3.95;;;;;;;;;;10232772;28;20057;-70
2022/07/05 11:53:30;;;;;;;7.07;3.35;;;;;;;;;;10234114;28;20087;-70
2022/07/05 11:58:48;;;;;;;7.97;3.55;;;;;;;;;;10247216;28;20514;-69
2022/07/05 12:03:55;;;;;;;5.95;3.17;;;;;;;;;;10234014;28;20092;-68
2022/07/05 12:09:04;;;;;;;5.40;3.30;;;;;;;;;;10234843;28;20076;-69
2022/07/05 12:14:03;;;;;;;4.95;3.08;;;;;;;;;;10240595;28;20072;-69
2022/07/05 12:19:04;;;;;;;6.10;3.38;;;;;;;;;;10250046;28;20117;-69
2022/07/05 12:24:03;;;;;;;4.87;3.50;;;;;;;;;;10240063;28;20084;-69
2022/07/05 12:29:04;;;;;;;4.47;3.17;;;;;;;;;;10240814;28;20494;-70
2022/07/05 12:34:18;;;;;;;13.57;3.75;;;;;;;;;;10240686;28;20037;-69
2022/07/05 12:39:17;;;;;;;7.82;3.78;;;;;;;;;;10249157;28;20104;-70
2022/07/05 12:44:19;;;;;;;8.30;3.38;;;;;;;;;;10252202;28;20068;-69
2022/07/05 12:49:18;;;;;;;5.80;3.33;;;;;;;;;;10252901;28;20073;-70
2022/07/05 12:59:36;;;;;;;7.10;3.42;;;;;;;;;;10247932;28;20434;-71
2022/07/05 13:04:36;;;;;;;7.57;2.88;;;;;;;;;;10252256;28;20069;-69
2022/07/05 13:09:40;;;;;;;7.25;3.40;;;;;;;;;;10246750;28;20060;-69
2022/07/05 13:14:39;;;;;;;7.15;4.07;;;;;;;;;;10252377;28;20636;-69
2022/07/05 13:19:40;;;;;;;3.83;3.00;;;;;;;;;;10251636;28;20073;-68
2022/07/05 13:24:39;;;;;;;4.57;3.65;;;;;;;;;;10250188;28;20489;-69
2022/07/05 13:29:37;;;;;;;7.90;3.97;;;;;;;;;;10250541;28;20096;-69
2022/07/05 13:34:36;;;;;;;10.45;3.75;;;;;;;;;;10248368;28;20076;-70
2022/07/05 13:39:37;;;;;;;3.65;3.33;;;;;;;;;;10250676;28;20455;-70
2022/07/05 13:44:35;;;;;;;7.43;3.60;;;;;;;;;;10237577;28;20080;-69
2022/07/05 13:49:34;;;;;;;8.85;3.00;;;;;;;;;;10237801;28;20263;-69
2022/07/05 13:54:32;;;;;;;5.32;3.50;;;;;;;;;;10237563;28;20056;-70
2022/07/05 13:59:33;;;;;;;6.03;3.78;;;;;;;;;;10249698;28;20068;-70
2022/07/05 14:04:33;;;;;;;6.10;4.50;;;;;;;;;;10246210;28;20088;-69
2022/07/05 14:09:32;;;;;;;12.85;3.38;;;;;;;;;;10248316;28;20546;-70
2022/07/05 14:14:30;;;;;;;14.85;5.22;;;;;;;;;;10250158;28;20088;-70
2022/07/05 14:19:37;;;;;;;8.38;3.70;;;;;;;;;;10249527;28;20060;-70
2022/07/05 14:24:36;;;;;;;4.93;3.90;;;;;;;;;;10246989;28;20089;-69
2022/07/05 14:29:34;;;;;;;5.85;4.40;;;;;;;;;;10248957;28;20080;-68
2022/07/05 14:34:33;;;;;;;6.20;3.72;;;;;;;;;;10248389;28;20077;-69
2022/07/05 14:39:32;;;;;;;7.00;4.30;;;;;;;;;;10249032;28;20073;-70
2022/07/05 14:44:31;;;;;;;11.48;9.20;;;;;;;;;;10247413;28;20108;-69
2022/07/05 14:49:29;;;;;;;7.85;3.90;;;;;;;;;;10247905;28;20077;-69
2022/07/05 14:54:27;;;;;;;7.18;3.70;;;;;;;;;;10239952;28;20045;-69
2022/07/05 14:59:27;;;;;;;6.85;3.90;;;;;;;;;;10248824;28;20068;-68
2022/07/05 15:04:25;;;;;;;12.13;3.90;;;;;;;;;;10229302;28;20080;-68
2022/07/05 15:09:24;;;;;;;8.82;3.92;;;;;;;;;;10235249;28;20179;-69
2022/07/05 15:14:22;;;;;;;6.03;4.28;;;;;;;;;;10234738;28;20422;-69
2022/07/05 15:19:22;;;;;;;6.82;3.50;;;;;;;;;;10239541;28;20083;-70
2022/07/05 15:24:21;;;;;;;4.78;3.72;;;;;;;;;;10248595;28;20084;-70
2022/07/05 15:29:19;;;;;;;8.25;3.85;;;;;;;;;;10248035;28;20091;-69
2022/07/05 15:34:17;;;;;;;9.10;3.65;;;;;;;;;;10228589;28;20084;-69
2022/07/05 15:39:17;;;;;;;9.20;3.65;;;;;;;;;;10234491;28;20041;-70
2022/07/05 15:44:15;;;;;;;9.45;4.05;;;;;;;;;;10235394;28;20049;-69
2022/07/05 15:49:14;;;;;;;6.68;3.90;;;;;;;;;;10256730;28;20073;-69
2022/07/05 15:54:12;;;;;;;7.45;3.38;;;;;;;;;;10241711;28;20041;-69
2022/07/05 15:59:12;;;;;;;7.85;4.05;;;;;;;;;;10241981;28;20426;-69
2022/07/05 16:04:10;;;;;;;4.88;3.15;;;;;;;;;;10252075;28;20084;-70
2022/07/05 16:09:08;;;;;;;4.80;3.67;;;;;;;;;;10253676;28;20077;-69
2022/07/05 16:14:07;;;;;;;11.07;4.53;;;;;;;;;;10254280;28;20084;-69
2022/07/05 16:19:07;;;;;;;14.48;4.70;;;;;;;;;;10256233;28;20073;-69
2022/07/05 16:24:05;;;;;;;4.63;3.42;;;;;;;;;;10240177;28;20060;-69
2022/07/05 16:29:04;;;;;;;4.57;3.55;;;;;;;;;;10241268;28;20088;-70
2022/07/05 16:34:02;;;;;;;8.63;3.75;;;;;;;;;;10240527;28;20056;-69
2022/07/05 16:39:02;;;;;;;22.02;9.20;;;;;;;;;;10254492;28;20088;-69
2022/07/05 16:44:08;;;;;;;7.75;4.32;;;;;;;;;;10253537;28;20069;-69
2022/07/05 16:49:06;;;;;;;7.15;4.07;;;;;;;;;;10252809;28;20149;-68
2022/07/05 16:54:06;;;;;;;4.65;3.65;;;;;;;;;;10251472;28;20061;-70
2022/07/05 16:59:04;;;;;;;5.75;3.38;;;;;;;;;;10253074;28;20077;-66
2022/07/05 17:04:03;;;;;;;5.88;3.72;;;;;;;;;;10248312;28;20040;-67
2022/07/05 17:09:02;;;;;;;7.63;3.70;;;;;;;;;;10238787;28;21115;-66
2022/07/05 17:14:02;;;;;;;7.05;3.30;;;;;;;;;;10239339;28;20045;-66
2022/07/05 17:19:00;;;;;;;6.80;4.10;;;;;;;;;;10238794;28;20474;-67
2022/07/05 17:23:58;;;;;;;15.82;6.72;;;;;;;;;;10251358;28;20092;-66
2022/07/05 17:28:57;;;;;;;7.65;3.90;;;;;;;;;;10245772;28;20135;-66
2022/07/05 17:33:56;;;;;;;6.20;3.83;;;;;;;;;;10238512;28;20088;-66
2022/07/05 17:38:55;;;;;;;13.80;4.15;;;;;;;;;;10238404;28;20072;-66
2022/07/05 17:43:58;;;;;;;6.78;3.38;;;;;;;;;;10238346;28;20414;-66
2022/07/05 17:48:58;;;;;;;11.65;4.38;;;;;;;;;;10248183;28;20080;-65
2022/07/05 17:53:56;;;;;;;6.15;3.72;;;;;;;;;;10250224;28;20088;-65
2022/07/05 17:58:55;;;;;;;7.18;3.35;;;;;;;;;;10248080;28;20072;-65
2022/07/05 18:03:54;;;;;;;6.60;3.75;;;;;;;;;;10250486;28;20717;-65
2022/07/05 18:08:53;;;;;;;4.72;3.53;;;;;;;;;;10234157;28;20072;-65
2022/07/05 18:13:58;;;;;;;7.68;3.45;;;;;;;;;;10236026;28;20068;-66
2022/07/05 18:18:56;;;;;;;4.82;3.83;;;;;;;;;;10240111;28;20071;-65
2022/07/05 18:23:56;;;;;;;4.70;3.60;;;;;;;;;;10252262;28;20099;-66
2022/07/05 18:28:55;;;;;;;5.15;3.40;;;;;;;;;;10246554;28;20079;-65
2022/07/05 18:33:53;;;;;;;9.13;4.60;;;;;;;;;;10228700;28;20081;-65
2022/07/05 18:38:52;;;;;;;13.27;4.13;;;;;;;;;;10233021;28;20069;-66
2022/07/05 18:43:57;;;;;;;9.43;3.72;;;;;;;;;;10235758;28;20061;-65
2022/07/05 18:48:56;;;;;;;7.30;4.88;;;;;;;;;;10251941;28;20080;-66
2022/07/05 18:53:54;;;;;;;7.63;3.88;;;;;;;;;;10234183;28;20076;-65
2022/07/05 18:58:53;;;;;;;7.00;3.50;;;;;;;;;;10235689;28;20053;-65
2022/07/05 19:03:54;;;;;;;8.93;3.65;;;;;;;;;;10235164;28;20069;-65
2022/07/05 19:14:09;;;;;;;5.25;3.40;;;;;;;;;;10232761;28;20152;-66
2022/07/05 19:19:08;;;;;;;4.78;3.30;;;;;;;;;;10237319;28;20069;-65
2022/07/05 19:24:07;;;;;;;4.30;3.30;;;;;;;;;;10238193;28;20076;-66
2022/07/05 19:29:06;;;;;;;10.40;3.15;;;;;;;;;;10230870;28;20206;-65
2022/07/05 19:34:04;;;;;;;8.02;2.95;;;;;;;;;;10234270;28;20507;-65
2022/07/05 19:39:04;;;;;;;7.70;3.28;;;;;;;;;;10234080;28;20068;-65
2022/07/05 19:44:02;;;;;;;4.72;3.15;;;;;;;;;;10230567;28;20064;-65
2022/07/05 19:49:01;;;;;;;4.45;2.63;;;;;;;;;;10235979;28;20069;-65
2022/07/05 19:53:59;;;;;;;7.75;3.15;;;;;;;;;;10233386;28;20061;-68
2022/07/05 19:58:59;;;;;;;5.07;3.40;;;;;;;;;;10234278;28;20065;-65
2022/07/05 20:03:57;;;;;;;3.28;2.83;;;;;;;;;;10241039;28;20124;-67
2022/07/05 20:09:02;;;;;;;6.82;3.55;;;;;;;;;;10233041;28;20081;-66
2022/07/05 20:14:02;;;;;;;3.60;2.88;;;;;;;;;;10233111;28;20056;-64
2022/07/05 20:19:00;;;;;;;3.50;2.58;;;;;;;;;;10225082;28;20080;-65
2022/07/05 20:23:58;;;;;;;3.80;3.00;;;;;;;;;;10235930;28;20072;-64
2022/07/05 20:28:57;;;;;;;6.70;2.60;;;;;;;;;;10234859;28;20080;-63
2022/07/05 20:33:56;;;;;;;4.68;2.72;;;;;;;;;;10239241;28;20068;-64
2022/07/05 20:38:55;;;;;;;5.78;2.95;;;;;;;;;;10238555;28;20077;-64
2022/07/05 20:43:53;;;;;;;7.82;3.50;;;;;;;;;;10238748;28;20513;-64
2022/07/05 20:48:51;;;;;;;9.27;3.40;;;;;;;;;;10251581;28;20506;-64
2022/07/05 20:53:53;;;;;;;2.95;2.72;;;;;;;;;;10249827;28;20377;-64
2022/07/05 20:58:51;;;;;;;10.27;3.17;;;;;;;;;;10251986;28;20073;-64
2022/07/05 21:03:50;;;;;;;4.95;3.15;;;;;;;;;;10245696;28;20072;-65
2022/07/05 21:08:49;;;;;;;6.60;2.65;;;;;;;;;;10248771;28;20080;-65
2022/07/05 21:13:49;;;;;;;2.83;2.50;;;;;;;;;;10248923;28;20064;-63
2022/07/05 21:18:47;;;;;;;4.90;3.17;;;;;;;;;;10249170;28;20076;-65
2022/07/05 21:23:46;;;;;;;4.82;2.72;;;;;;;;;;10246094;28;20076;-65
2022/07/05 21:28:45;;;;;;;6.40;3.63;;;;;;;;;;10247986;28;20565;-64
2022/07/05 21:33:44;;;;;;;6.75;3.50;;;;;;;;;;10247756;28;20064;-64
2022/07/05 21:38:43;;;;;;;7.70;3.28;;;;;;;;;;10249896;28;20080;-65
2022/07/05 21:43:46;;;;;;;5.80;2.75;;;;;;;;;;10250730;28;20586;-65
2022/07/05 21:48:46;;;;;;;5.15;2.92;;;;;;;;;;10250535;28;20068;-65
2022/07/05 21:53:44;;;;;;;4.75;2.50;;;;;;;;;;10250155;28;20454;-66
2022/07/05 22:04:28;;;;;;;6.35;3.40;;;;;;;;;;10190089;28;20080;-65
2022/07/05 22:09:27;;;;;;;5.05;3.22;;;;;;;;;;10231498;28;20081;-66
2022/07/05 22:14:25;;;;;;;5.72;3.10;;;;;;;;;;10236950;28;20077;-66
2022/07/05 22:19:25;;;;;;;4.45;2.85;;;;;;;;;;10236815;28;20417;-65
2022/07/05 22:24:23;;;;;;;7.13;2.90;;;;;;;;;;10249814;28;20091;-65
2022/07/05 22:29:22;;;;;;;5.53;3.08;;;;;;;;;;10243219;28;20085;-65
2022/07/05 22:34:20;;;;;;;13.65;3.03;;;;;;;;;;10249758;28;20072;-65
2022/07/05 22:39:20;;;;;;;9.30;3.17;;;;;;;;;;10249126;28;20076;-65
2022/07/05 22:44:18;;;;;;;7.00;3.50;;;;;;;;;;10242939;28;20140;-65
2022/07/05 22:49:16;;;;;;;7.43;2.85;;;;;;;;;;10242252;28;20081;-65
2022/07/05 22:54:14;;;;;;;5.82;3.45;;;;;;;;;;10242600;28;20497;-65
2022/07/05 22:59:14;;;;;;;4.47;3.22;;;;;;;;;;10249164;28;20041;-65
2022/07/05 23:04:12;;;;;;;10.98;3.08;;;;;;;;;;10247118;28;20511;-65
2022/07/05 23:09:11;;;;;;;4.65;2.65;;;;;;;;;;10247626;28;20095;-65
2022/07/05 23:14:09;;;;;;;5.53;3.00;;;;;;;;;;10247717;28;20053;-65
2022/07/05 23:19:09;;;;;;;7.70;3.00;;;;;;;;;;10247297;28;20538;-65
2022/07/05 23:29:23;;;;;;;5.95;3.40;;;;;;;;;;10247784;28;20077;-64
2022/07/05 23:34:23;;;;;;;5.32;3.30;;;;;;;;;;10247248;28;20076;-65
2022/07/05 23:39:21;;;;;;;5.43;3.38;;;;;;;;;;10247482;28;20077;-65
2022/07/05 23:44:19;;;;;;;7.28;3.13;;;;;;;;;;10247055;28;20069;-65
2022/07/05 23:49:18;;;;;;;7.25;3.25;;;;;;;;;;10246578;28;20077;-65
2022/07/05 23:54:17;;;;;;;4.38;3.35;;;;;;;;;;10247193;28;20119;-64
2022/07/05 23:59:16;;;;;;;2.88;2.60;;;;;;;;;;10228459;28;20068;-64
